sensor_id;sensor_type;location;lat;lon;timestamp;temperature;humidity
6178;DHT22;3122;48.208;11.174;2023-05-10T00:03:16;13.10;1.00
6178;DHT22;3122;48.208;11.174;2023-05-10T00:08:17;13.10;1.00
6178;DHT22;3122;48.208;11.174;2023-05-10T00:13:18;13.00;1.00
6178;DHT22;3122;48.208;11.174;2023-05-10T00:18:18;13.10;1.00
6178;DHT22;3122;48.208;11.174;2023-05-10T00:23:19;13.00;1.00
6178;DHT22;3122;48.208;11.174;2023-05-10T00:28:19;13.00;1.00
6178;DHT22;3122;48.208;11.174;2023-05-10T00:33:20;12.90;1.00
6178;DHT22;3122;48.208;11.174;2023-05-10T00:38:21;13.00;1.00
6178;DHT22;3122;48.208;11.174;2023-05-10T00:43:21;12.90;1.00
6178;DHT22;3122;48.208;11.174;2023-05-10T00:48:22;12.90;1.00
6178;DHT22;3122;48.208;11.174;2023-05-10T00:53:23;12.90;1.00
6178;DHT22;3122;48.208;11.174;2023-05-10T00:58:24;12.90;1.00
6178;DHT22;3122;48.208;11.174;2023-05-10T01:03:29;12.80;1.00
6178;DHT22;3122;48.208;11.174;2023-05-10T01:08:29;12.80;1.00
6178;DHT22;3122;48.208;11.174;2023-05-10T01:13:35;12.90;1.00
6178;DHT22;3122;48.208;11.174;2023-05-10T01:18:41;12.80;1.00
6178;DHT22;3122;48.208;11.174;2023-05-10T01:23:45;12.70;1.00
6178;DHT22;3122;48.208;11.174;2023-05-10T01:34:16;12.80;1.00
6178;DHT22;3122;48.208;11.174;2023-05-10T01:39:31;12.80;1.00
6178;DHT22;3122;48.208;11.174;2023-05-10T01:44:53;12.70;1.00
6178;DHT22;3122;48.208;11.174;2023-05-10T01:49:59;12.70;1.00
6178;DHT22;3122;48.208;11.174;2023-05-10T01:55:09;12.60;1.00
6178;DHT22;3122;48.208;11.174;2023-05-10T02:00:14;12.60;1.00
6178;DHT22;3122;48.208;11.174;2023-05-10T02:05:16;12.50;1.00
6178;DHT22;3122;48.208;11.174;2023-05-10T02:10:18;12.60;1.00
6178;DHT22;3122;48.208;11.174;2023-05-10T02:15:22;12.60;1.00
6178;DHT22;3122;48.208;11.174;2023-05-10T02:20:24;12.50;1.00
6178;DHT22;3122;48.208;11.174;2023-05-10T02:25:27;12.50;1.00
6178;DHT22;3122;48.208;11.174;2023-05-10T02:30:29;12.50;1.00
6178;DHT22;3122;48.208;11.174;2023-05-10T02:35:32;12.50;1.00
6178;DHT22;3122;48.208;11.174;2023-05-10T02:40:34;12.40;1.00
6178;DHT22;3122;48.208;11.174;2023-05-10T02:45:36;12.40;1.00
6178;DHT22;3122;48.208;11.174;2023-05-10T02:50:43;12.40;1.00
6178;DHT22;3122;48.208;11.174;2023-05-10T02:55:45;12.40;1.00
6178;DHT22;3122;48.208;11.174;2023-05-10T03:00:47;12.30;1.00
6178;DHT22;3122;48.208;11.174;2023-05-10T03:05:48;12.30;1.00
6178;DHT22;3122;48.208;11.174;2023-05-10T03:16:29;12.40;1.00
6178;DHT22;3122;48.208;11.174;2023-05-10T03:21:35;12.40;1.00
6178;DHT22;3122;48.208;11.174;2023-05-10T03:26:38;12.30;1.00
6178;DHT22;3122;48.208;11.174;2023-05-10T03:31:39;12.30;1.00
6178;DHT22;3122;48.208;11.174;2023-05-10T03:36:39;12.30;1.00
6178;DHT22;3122;48.208;11.174;2023-05-10T03:41:40;12.40;1.00
6178;DHT22;3122;48.208;11.174;2023-05-10T03:46:41;12.30;1.00
6178;DHT22;3122;48.208;11.174;2023-05-10T03:51:42;12.30;1.00
6178;DHT22;3122;48.208;11.174;2023-05-10T03:56:42;12.20;1.00
6178;DHT22;3122;48.208;11.174;2023-05-10T04:01:43;12.20;1.00
6178;DHT22;3122;48.208;11.174;2023-05-10T04:06:44;12.20;1.00
6178;DHT22;3122;48.208;11.174;2023-05-10T04:11:45;12.20;1.00
6178;DHT22;3122;48.208;11.174;2023-05-10T04:16:45;12.20;1.00
6178;DHT22;3122;48.208;11.174;2023-05-10T04:21:46;12.10;1.00
6178;DHT22;3122;48.208;11.174;2023-05-10T04:26:46;12.00;1.00
6178;DHT22;3122;48.208;11.174;2023-05-10T04:31:47;11.90;1.00
6178;DHT22;3122;48.208;11.174;2023-05-10T04:36:49;12.00;1.00
6178;DHT22;3122;48.208;11.174;2023-05-10T04:41:49;11.80;1.00
6178;DHT22;3122;48.208;11.174;2023-05-10T04:46:50;11.80;1.00
6178;DHT22;3122;48.208;11.174;2023-05-10T04:51:50;11.60;1.00
6178;DHT22;3122;48.208;11.174;2023-05-10T04:56:51;11.40;1.00
6178;DHT22;3122;48.208;11.174;2023-05-10T05:01:51;11.20;1.00
6178;DHT22;3122;48.208;11.174;2023-05-10T05:06:52;11.20;1.00
6178;DHT22;3122;48.208;11.174;2023-05-10T05:11:52;11.20;1.00
6178;DHT22;3122;48.208;11.174;2023-05-10T05:16:53;11.30;1.00
6178;DHT22;3122;48.208;11.174;2023-05-10T05:21:54;11.30;1.00
6178;DHT22;3122;48.208;11.174;2023-05-10T05:26:55;11.30;1.00
6178;DHT22;3122;48.208;11.174;2023-05-10T05:31:55;11.30;1.80
6178;DHT22;3122;48.208;11.174;2023-05-10T05:36:56;11.40;2.00
6178;DHT22;3122;48.208;11.174;2023-05-10T05:41:56;11.50;1.60
6178;DHT22;3122;48.208;11.174;2023-05-10T05:46:57;11.60;2.00
6178;DHT22;3122;48.208;11.174;2023-05-10T05:52:02;11.70;1.00
6178;DHT22;3122;48.208;11.174;2023-05-10T05:57:02;11.80;1.00
6178;DHT22;3122;48.208;11.174;2023-05-10T06:02:03;11.80;1.00
6178;DHT22;3122;48.208;11.174;2023-05-10T06:07:03;11.90;1.00
6178;DHT22;3122;48.208;11.174;2023-05-10T06:12:04;12.10;1.00
6178;DHT22;3122;48.208;11.174;2023-05-10T06:17:05;12.20;1.00
6178;DHT22;3122;48.208;11.174;2023-05-10T06:22:07;12.20;1.00
6178;DHT22;3122;48.208;11.174;2023-05-10T06:27:07;12.20;1.00
6178;DHT22;3122;48.208;11.174;2023-05-10T06:32:08;12.30;1.00
6178;DHT22;3122;48.208;11.174;2023-05-10T06:37:08;12.40;1.00
6178;DHT22;3122;48.208;11.174;2023-05-10T06:42:09;12.40;1.00
6178;DHT22;3122;48.208;11.174;2023-05-10T06:47:10;12.30;1.00
6178;DHT22;3122;48.208;11.174;2023-05-10T06:52:10;12.40;1.00
6178;DHT22;3122;48.208;11.174;2023-05-10T06:57:11;12.40;1.00
6178;DHT22;3122;48.208;11.174;2023-05-10T07:02:11;12.50;1.00
6178;DHT22;3122;48.208;11.174;2023-05-10T07:07:13;12.60;1.00
6178;DHT22;3122;48.208;11.174;2023-05-10T07:12:14;12.50;1.00
6178;DHT22;3122;48.208;11.174;2023-05-10T07:17:15;12.70;1.00
6178;DHT22;3122;48.208;11.174;2023-05-10T07:22:16;12.80;1.00
6178;DHT22;3122;48.208;11.174;2023-05-10T07:27:17;12.90;1.00
6178;DHT22;3122;48.208;11.174;2023-05-10T07:32:17;12.90;1.00
6178;DHT22;3122;48.208;11.174;2023-05-10T07:37:18;13.10;1.00
6178;DHT22;3122;48.208;11.174;2023-05-10T07:42:18;13.40;1.00
6178;DHT22;3122;48.208;11.174;2023-05-10T07:47:19;13.60;1.00
6178;DHT22;3122;48.208;11.174;2023-05-10T07:52:19;13.70;1.00
6178;DHT22;3122;48.208;11.174;2023-05-10T07:57:20;13.70;1.00
6178;DHT22;3122;48.208;11.174;2023-05-10T08:02:21;13.60;1.00
6178;DHT22;3122;48.208;11.174;2023-05-10T08:07:24;13.60;1.00
6178;DHT22;3122;48.208;11.174;2023-05-10T08:12:24;13.80;1.00
6178;DHT22;3122;48.208;11.174;2023-05-10T08:17:25;13.70;1.00
6178;DHT22;3122;48.208;11.174;2023-05-10T08:22:25;13.80;1.00
6178;DHT22;3122;48.208;11.174;2023-05-10T08:27:26;13.80;1.00
6178;DHT22;3122;48.208;11.174;2023-05-10T08:32:26;14.20;1.00
6178;DHT22;3122;48.208;11.174;2023-05-10T08:37:29;13.80;1.00
6178;DHT22;3122;48.208;11.174;2023-05-10T08:42:30;13.60;1.00
6178;DHT22;3122;48.208;11.174;2023-05-10T08:47:35;13.70;1.00
6178;DHT22;3122;48.208;11.174;2023-05-10T08:52:38;13.80;1.00
6178;DHT22;3122;48.208;11.174;2023-05-10T08:57:40;14.00;1.00
6178;DHT22;3122;48.208;11.174;2023-05-10T09:02:42;14.10;1.00
6178;DHT22;3122;48.208;11.174;2023-05-10T09:07:43;13.90;1.00
6178;DHT22;3122;48.208;11.174;2023-05-10T09:12:44;13.90;1.00
6178;DHT22;3122;48.208;11.174;2023-05-10T09:17:46;13.70;1.00
6178;DHT22;3122;48.208;11.174;2023-05-10T09:22:47;13.60;1.00
6178;DHT22;3122;48.208;11.174;2023-05-10T09:27:48;13.60;1.00
6178;DHT22;3122;48.208;11.174;2023-05-10T09:32:49;14.10;1.00
6178;DHT22;3122;48.208;11.174;2023-05-10T09:37:52;14.50;1.00
6178;DHT22;3122;48.208;11.174;2023-05-10T09:42:58;14.90;1.00
6178;DHT22;3122;48.208;11.174;2023-05-10T09:48:01;15.00;1.00
6178;DHT22;3122;48.208;11.174;2023-05-10T09:53:03;15.20;1.00
6178;DHT22;3122;48.208;11.174;2023-05-10T09:58:04;15.00;1.00
6178;DHT22;3122;48.208;11.174;2023-05-10T10:03:21;14.80;1.00
6178;DHT22;3122;48.208;11.174;2023-05-10T10:08:21;15.20;1.00
6178;DHT22;3122;48.208;11.174;2023-05-10T10:13:22;15.00;1.00
6178;DHT22;3122;48.208;11.174;2023-05-10T10:18:23;14.80;1.00
6178;DHT22;3122;48.208;11.174;2023-05-10T10:23:27;15.00;1.00
6178;DHT22;3122;48.208;11.174;2023-05-10T10:34:01;14.90;1.00
6178;DHT22;3122;48.208;11.174;2023-05-10T10:39:09;14.80;1.00
6178;DHT22;3122;48.208;11.174;2023-05-10T10:54:41;14.20;1.00
6178;DHT22;3122;48.208;11.174;2023-05-10T10:59:43;13.60;1.00
6178;DHT22;3122;48.208;11.174;2023-05-10T11:04:44;13.20;1.00
6178;DHT22;3122;48.208;11.174;2023-05-10T11:09:49;13.00;1.00
6178;DHT22;3122;48.208;11.174;2023-05-10T11:14:50;12.90;1.00
6178;DHT22;3122;48.208;11.174;2023-05-10T11:20:10;12.80;1.00
6178;DHT22;3122;48.208;11.174;2023-05-10T11:25:14;12.70;1.00
6178;DHT22;3122;48.208;11.174;2023-05-10T11:30:14;12.80;1.00
6178;DHT22;3122;48.208;11.174;2023-05-10T11:35:15;12.80;1.00
6178;DHT22;3122;48.208;11.174;2023-05-10T11:40:16;13.00;1.00
6178;DHT22;3122;48.208;11.174;2023-05-10T11:45:16;13.20;1.00
6178;DHT22;3122;48.208;11.174;2023-05-10T11:50:17;13.00;1.00
6178;DHT22;3122;48.208;11.174;2023-05-10T11:55:18;13.00;1.00
6178;DHT22;3122;48.208;11.174;2023-05-10T12:00:19;13.20;1.00
6178;DHT22;3122;48.208;11.174;2023-05-10T12:05:20;13.20;1.00
6178;DHT22;3122;48.208;11.174;2023-05-10T12:10:25;13.40;1.00
6178;DHT22;3122;48.208;11.174;2023-05-10T12:15:27;13.50;1.00
6178;DHT22;3122;48.208;11.174;2023-05-10T12:20:28;13.40;1.00
6178;DHT22;3122;48.208;11.174;2023-05-10T12:25:34;13.40;1.00
6178;DHT22;3122;48.208;11.174;2023-05-10T12:30:36;13.30;1.00
6178;DHT22;3122;48.208;11.174;2023-05-10T12:35:58;13.40;1.00
6178;DHT22;3122;48.208;11.174;2023-05-10T12:41:01;13.40;1.00
6178;DHT22;3122;48.208;11.174;2023-05-10T12:51:06;12.70;1.00
6178;DHT22;3122;48.208;11.174;2023-05-10T12:56:12;12.60;1.00
6178;DHT22;3122;48.208;11.174;2023-05-10T13:01:12;12.20;1.00
6178;DHT22;3122;48.208;11.174;2023-05-10T13:06:13;11.90;1.00
6178;DHT22;3122;48.208;11.174;2023-05-10T13:11:14;11.90;1.00
6178;DHT22;3122;48.208;11.174;2023-05-10T13:16:17;12.00;1.00
6178;DHT22;3122;48.208;11.174;2023-05-10T13:21:17;12.10;1.00
6178;DHT22;3122;48.208;11.174;2023-05-10T13:26:19;12.10;1.00
6178;DHT22;3122;48.208;11.174;2023-05-10T13:31:20;12.40;1.00
6178;DHT22;3122;48.208;11.174;2023-05-10T13:36:20;12.60;1.00
6178;DHT22;3122;48.208;11.174;2023-05-10T13:41:21;12.50;1.00
6178;DHT22;3122;48.208;11.174;2023-05-10T13:46:22;12.40;1.00
6178;DHT22;3122;48.208;11.174;2023-05-10T13:51:22;12.20;1.00
6178;DHT22;3122;48.208;11.174;2023-05-10T13:56:23;12.10;1.00
6178;DHT22;3122;48.208;11.174;2023-05-10T14:01:24;12.00;1.00
6178;DHT22;3122;48.208;11.174;2023-05-10T14:06:26;12.00;1.00
6178;DHT22;3122;48.208;11.174;2023-05-10T14:11:27;11.70;1.00
6178;DHT22;3122;48.208;11.174;2023-05-10T14:16:27;11.70;1.00
6178;DHT22;3122;48.208;11.174;2023-05-10T14:21:28;11.80;1.00
6178;DHT22;3122;48.208;11.174;2023-05-10T14:26:30;11.70;1.00
6178;DHT22;3122;48.208;11.174;2023-05-10T14:31:31;11.80;1.00
6178;DHT22;3122;48.208;11.174;2023-05-10T14:36:32;11.70;1.00
6178;DHT22;3122;48.208;11.174;2023-05-10T14:41:32;11.80;1.00
6178;DHT22;3122;48.208;11.174;2023-05-10T14:46:33;11.80;1.00
6178;DHT22;3122;48.208;11.174;2023-05-10T14:51:34;11.70;1.00
6178;DHT22;3122;48.208;11.174;2023-05-10T14:56:37;11.60;1.00
6178;DHT22;3122;48.208;11.174;2023-05-10T15:01:39;11.60;1.00
6178;DHT22;3122;48.208;11.174;2023-05-10T15:06:42;11.50;1.00
6178;DHT22;3122;48.208;11.174;2023-05-10T15:11:42;11.10;1.00
6178;DHT22;3122;48.208;11.174;2023-05-10T15:16:44;11.20;1.00
6178;DHT22;3122;48.208;11.174;2023-05-10T15:21:45;11.20;1.00
6178;DHT22;3122;48.208;11.174;2023-05-10T15:26:46;11.30;1.00
6178;DHT22;3122;48.208;11.174;2023-05-10T15:31:47;11.20;1.00
6178;DHT22;3122;48.208;11.174;2023-05-10T15:36:48;11.20;1.00
6178;DHT22;3122;48.208;11.174;2023-05-10T15:41:48;11.20;1.00
6178;DHT22;3122;48.208;11.174;2023-05-10T15:46:49;11.20;1.00
6178;DHT22;3122;48.208;11.174;2023-05-10T15:51:49;11.30;1.00
6178;DHT22;3122;48.208;11.174;2023-05-10T15:56:50;11.30;1.00
6178;DHT22;3122;48.208;11.174;2023-05-10T16:01:51;11.30;1.00
6178;DHT22;3122;48.208;11.174;2023-05-10T16:06:51;11.10;1.00
6178;DHT22;3122;48.208;11.174;2023-05-10T16:11:52;11.00;1.00
6178;DHT22;3122;48.208;11.174;2023-05-10T16:16:52;10.80;1.00
6178;DHT22;3122;48.208;11.174;2023-05-10T16:21:53;10.60;1.00
6178;DHT22;3122;48.208;11.174;2023-05-10T16:26:54;10.60;1.00
6178;DHT22;3122;48.208;11.174;2023-05-10T16:31:54;10.50;1.00
6178;DHT22;3122;48.208;11.174;2023-05-10T16:36:55;10.40;1.00
6178;DHT22;3122;48.208;11.174;2023-05-10T16:41:55;10.50;1.00
6178;DHT22;3122;48.208;11.174;2023-05-10T16:46:56;10.60;1.00
6178;DHT22;3122;48.208;11.174;2023-05-10T16:51:56;10.60;1.00
6178;DHT22;3122;48.208;11.174;2023-05-10T16:56:57;10.50;1.00
6178;DHT22;3122;48.208;11.174;2023-05-10T17:01:58;10.50;1.00
6178;DHT22;3122;48.208;11.174;2023-05-10T17:06:58;10.40;1.00
6178;DHT22;3122;48.208;11.174;2023-05-10T17:11:59;10.50;1.00
6178;DHT22;3122;48.208;11.174;2023-05-10T17:16:59;10.40;1.00
6178;DHT22;3122;48.208;11.174;2023-05-10T17:22:00;10.50;1.00
6178;DHT22;3122;48.208;11.174;2023-05-10T17:27:00;10.40;1.00
6178;DHT22;3122;48.208;11.174;2023-05-10T17:32:02;10.40;1.00
6178;DHT22;3122;48.208;11.174;2023-05-10T17:37:03;10.40;1.00
6178;DHT22;3122;48.208;11.174;2023-05-10T17:42:04;10.30;1.00
6178;DHT22;3122;48.208;11.174;2023-05-10T17:47:05;10.30;1.00
6178;DHT22;3122;48.208;11.174;2023-05-10T17:52:05;10.20;1.00
6178;DHT22;3122;48.208;11.174;2023-05-10T17:57:06;10.20;1.00
6178;DHT22;3122;48.208;11.174;2023-05-10T18:02:07;10.20;1.00
6178;DHT22;3122;48.208;11.174;2023-05-10T18:07:08;10.30;1.00
6178;DHT22;3122;48.208;11.174;2023-05-10T18:12:08;10.20;1.00
6178;DHT22;3122;48.208;11.174;2023-05-10T18:17:09;10.20;1.00
6178;DHT22;3122;48.208;11.174;2023-05-10T18:22:10;10.20;1.00
6178;DHT22;3122;48.208;11.174;2023-05-10T18:27:10;10.20;1.00
6178;DHT22;3122;48.208;11.174;2023-05-10T18:32:11;10.20;1.00
6178;DHT22;3122;48.208;11.174;2023-05-10T18:37:11;10.20;1.00
6178;DHT22;3122;48.208;11.174;2023-05-10T18:42:12;10.10;1.00
6178;DHT22;3122;48.208;11.174;2023-05-10T18:47:13;10.10;1.00
6178;DHT22;3122;48.208;11.174;2023-05-10T18:52:14;10.10;1.00
6178;DHT22;3122;48.208;11.174;2023-05-10T18:57:15;10.10;1.00
6178;DHT22;3122;48.208;11.174;2023-05-10T19:02:16;10.10;1.00
6178;DHT22;3122;48.208;11.174;2023-05-10T19:07:17;10.00;1.00
6178;DHT22;3122;48.208;11.174;2023-05-10T19:12:17;10.00;1.00
6178;DHT22;3122;48.208;11.174;2023-05-10T19:17:18;10.00;1.00
6178;DHT22;3122;48.208;11.174;2023-05-10T19:22:18;10.00;1.00
6178;DHT22;3122;48.208;11.174;2023-05-10T19:27:19;10.00;1.00
6178;DHT22;3122;48.208;11.174;2023-05-10T19:32:19;10.00;1.00
6178;DHT22;3122;48.208;11.174;2023-05-10T19:37:20;10.00;1.00
6178;DHT22;3122;48.208;11.174;2023-05-10T19:42:20;10.00;1.00
6178;DHT22;3122;48.208;11.174;2023-05-10T19:47:21;10.00;1.00
6178;DHT22;3122;48.208;11.174;2023-05-10T19:52:21;10.00;1.00
6178;DHT22;3122;48.208;11.174;2023-05-10T19:57:22;9.90;1.00
6178;DHT22;3122;48.208;11.174;2023-05-10T20:02:23;9.90;1.00
6178;DHT22;3122;48.208;11.174;2023-05-10T20:07:23;9.90;1.00
6178;DHT22;3122;48.208;11.174;2023-05-10T20:12:24;9.90;1.00
6178;DHT22;3122;48.208;11.174;2023-05-10T20:17:25;9.90;1.00
6178;DHT22;3122;48.208;11.174;2023-05-10T20:22:25;9.80;1.00
6178;DHT22;3122;48.208;11.174;2023-05-10T20:27:26;9.80;1.00
6178;DHT22;3122;48.208;11.174;2023-05-10T20:32:27;9.80;1.00
6178;DHT22;3122;48.208;11.174;2023-05-10T20:37:28;9.80;1.00
6178;DHT22;3122;48.208;11.174;2023-05-10T20:42:29;9.80;1.00
6178;DHT22;3122;48.208;11.174;2023-05-10T20:47:29;9.70;1.00
6178;DHT22;3122;48.208;11.174;2023-05-10T20:52:30;9.70;1.00
6178;DHT22;3122;48.208;11.174;2023-05-10T20:57:30;9.70;1.00
6178;DHT22;3122;48.208;11.174;2023-05-10T21:02:31;9.70;1.00
6178;DHT22;3122;48.208;11.174;2023-05-10T21:07:31;9.70;1.00
6178;DHT22;3122;48.208;11.174;2023-05-10T21:12:32;9.70;1.00
6178;DHT22;3122;48.208;11.174;2023-05-10T21:17:33;9.70;1.00
6178;DHT22;3122;48.208;11.174;2023-05-10T21:22:33;9.70;1.00
6178;DHT22;3122;48.208;11.174;2023-05-10T21:27:34;9.70;1.00
6178;DHT22;3122;48.208;11.174;2023-05-10T21:32:34;9.60;1.00
6178;DHT22;3122;48.208;11.174;2023-05-10T21:37:36;9.60;1.00
6178;DHT22;3122;48.208;11.174;2023-05-10T21:42:36;9.60;1.00
6178;DHT22;3122;48.208;11.174;2023-05-10T21:47:37;9.60;1.00
6178;DHT22;3122;48.208;11.174;2023-05-10T21:52:38;9.50;1.00
6178;DHT22;3122;48.208;11.174;2023-05-10T21:57:38;9.50;1.00
6178;DHT22;3122;48.208;11.174;2023-05-10T22:02:40;9.50;1.00
6178;DHT22;3122;48.208;11.174;2023-05-10T22:07:41;9.40;1.00
6178;DHT22;3122;48.208;11.174;2023-05-10T22:12:41;9.40;1.00
6178;DHT22;3122;48.208;11.174;2023-05-10T22:17:42;9.40;1.00
6178;DHT22;3122;48.208;11.174;2023-05-10T22:22:43;9.40;1.00
6178;DHT22;3122;48.208;11.174;2023-05-10T22:27:44;9.40;1.00
6178;DHT22;3122;48.208;11.174;2023-05-10T22:32:44;9.40;1.00
6178;DHT22;3122;48.208;11.174;2023-05-10T22:37:45;9.40;1.00
6178;DHT22;3122;48.208;11.174;2023-05-10T22:42:46;9.30;1.00
6178;DHT22;3122;48.208;11.174;2023-05-10T22:47:47;9.30;1.00
6178;DHT22;3122;48.208;11.174;2023-05-10T22:52:47;9.30;1.00
6178;DHT22;3122;48.208;11.174;2023-05-10T22:57:48;9.40;1.00
6178;DHT22;3122;48.208;11.174;2023-05-10T23:02:48;9.30;1.00
6178;DHT22;3122;48.208;11.174;2023-05-10T23:07:49;9.20;1.00
6178;DHT22;3122;48.208;11.174;2023-05-10T23:12:52;9.20;1.00
6178;DHT22;3122;48.208;11.174;2023-05-10T23:17:54;9.20;1.00
6178;DHT22;3122;48.208;11.174;2023-05-10T23:22:55;9.30;1.00
6178;DHT22;3122;48.208;11.174;2023-05-10T23:27:56;9.30;1.00
6178;DHT22;3122;48.208;11.174;2023-05-10T23:32:56;9.20;1.00
6178;DHT22;3122;48.208;11.174;2023-05-10T23:37:57;9.20;1.00
6178;DHT22;3122;48.208;11.174;2023-05-10T23:42:58;9.10;1.00
6178;DHT22;3122;48.208;11.174;2023-05-10T23:47:58;9.20;1.00
6178;DHT22;3122;48.208;11.174;2023-05-10T23:52:59;9.10;1.00
6178;DHT22;3122;48.208;11.174;2023-05-10T23:57:59;9.10;1.00
